Time,TemperatureF,DewpointF,PressureIn,WindDirection,WindDirectionDegrees,WindSpeedMPH,WindSpeedGustMPH,Humidity,HourlyPrecipIn,Conditions,Clouds,dailyrainin,SoftwareType,DateUTC
2013-08-29 00:01:00,68.4,67.5,30.00,ENE,64,0.0,0.0,97,0.00,,,0.00,meteohub,2013-08-29 04:01:00,
2013-08-29 00:02:00,68.4,67.5,30.00,ENE,64,0.0,0.0,97,0.00,,,0.00,meteohub,2013-08-29 04:02:00,
2013-08-29 00:03:00,68.5,67.6,30.00,ENE,64,0.0,0.0,97,0.00,,,0.00,meteohub,2013-08-29 04:03:00,
2013-08-29 00:04:00,68.4,67.5,30.00,ENE,64,0.0,0.0,97,0.00,,,0.00,meteohub,2013-08-29 04:04:00,
2013-08-29 00:05:00,68.4,67.5,30.00,ENE,64,0.0,0.0,97,0.00,,,0.00,meteohub,2013-08-29 04:05:00,
2013-08-29 00:10:00,68.4,67.5,30.00,ENE,64,0.0,0.0,97,0.00,,,0.00,meteohub,2013-08-29 04:10:00,
2013-08-29 00:15:00,68.4,67.5,30.00,ENE,64,0.0,0.0,97,0.00,,,0.00,meteohub,2013-08-29 04:15:00,
2013-08-29 00:21:00,68.4,67.5,30.00,ENE,64,0.0,0.0,97,0.00,,,0.00,meteohub,2013-08-29 04:21:00,
2013-08-29 00:26:00,68.4,67.5,30.01,ENE,64,0.0,0.0,97,0.00,,,0.00,meteohub,2013-08-29 04:26:00,
2013-08-29 00:31:00,68.4,67.5,30.00,ENE,64,0.0,0.0,97,0.00,,,0.00,meteohub,2013-08-29 04:31:00,
2013-08-29 00:37:00,68.4,67.8,30.00,ENE,64,0.0,0.0,98,0.00,,,0.00,meteohub,2013-08-29 04:37:00,
2013-08-29 00:42:00,68.4,67.8,30.00,ENE,64,0.0,0.0,98,0.00,,,0.00,meteohub,2013-08-29 04:42:00,
2013-08-29 00:47:00,68.4,67.8,30.01,ENE,64,0.0,0.0,98,0.00,,,0.00,meteohub,2013-08-29 04:47:00,
2013-08-29 00:52:00,68.2,67.6,30.01,ENE,64,0.0,0.0,98,0.00,,,0.00,meteohub,2013-08-29 04:52:00,
2013-08-29 00:57:00,68.2,67.6,30.01,ENE,64,0.0,0.0,98,0.00,,,0.00,meteohub,2013-08-29 04:57:00,
2013-08-29 01:02:00,68.2,67.6,30.00,ENE,64,0.0,0.0,98,0.00,,,0.00,meteohub,2013-08-29 05:02:00,
2013-08-29 01:07:00,68.2,67.6,30.01,ENE,64,0.0,0.0,98,0.00,,,0.00,meteohub,2013-08-29 05:07:00,
2013-08-29 01:15:00,67.8,67.3,30.00,ENE,64,0.0,0.0,98,0.00,,,0.00,meteohub,2013-08-29 05:15:00,
2013-08-29 01:20:00,67.8,67.3,30.00,ENE,64,0.0,0.0,98,0.00,,,0.00,meteohub,2013-08-29 05:20:00,
2013-08-29 01:25:00,67.8,67.3,30.01,ENE,64,0.0,0.0,98,0.00,,,0.00,meteohub,2013-08-29 05:25:00,
2013-08-29 01:31:00,67.6,67.1,30.00,ENE,64,0.0,0.0,98,0.00,,,0.00,meteohub,2013-08-29 05:31:00,
2013-08-29 01:36:00,67.6,67.1,30.01,ENE,64,0.0,0.0,98,0.00,,,0.00,meteohub,2013-08-29 05:36:00,
2013-08-29 01:41:00,67.6,67.1,30.01,ENE,64,0.0,0.0,98,0.00,,,0.00,meteohub,2013-08-29 05:41:00,
2013-08-29 01:47:00,67.6,67.1,30.01,ENE,64,0.0,0.0,98,0.00,,,0.00,meteohub,2013-08-29 05:47:00,
2013-08-29 01:52:00,67.6,67.1,30.01,ENE,64,0.0,0.0,98,0.00,,,0.00,meteohub,2013-08-29 05:52:00,
2013-08-29 01:57:00,67.6,67.1,30.00,ENE,64,0.0,0.0,98,0.00,,,0.00,meteohub,2013-08-29 05:57:00,
2013-08-29 02:02:00,67.6,67.1,30.00,ENE,64,0.0,0.0,98,0.00,,,0.00,meteohub,2013-08-29 06:02:00,
2013-08-29 02:07:00,67.6,67.1,30.00,ENE,64,0.0,0.0,98,0.00,,,0.00,meteohub,2013-08-29 06:07:00,
2013-08-29 02:13:00,67.8,67.3,30.00,ENE,64,0.0,0.0,98,0.00,,,0.00,meteohub,2013-08-29 06:13:00,
2013-08-29 02:18:00,68.2,67.6,30.00,ENE,64,0.0,0.0,98,0.00,,,0.00,meteohub,2013-08-29 06:18:00,
2013-08-29 02:23:00,68.2,67.6,30.00,ENE,64,0.0,0.0,98,0.00,,,0.00,meteohub,2013-08-29 06:23:00,
2013-08-29 02:29:00,68.4,67.8,30.00,ENE,64,0.0,0.0,98,0.00,,,0.00,meteohub,2013-08-29 06:29:00,
2013-08-29 02:34:00,68.2,67.6,30.00,ENE,64,0.0,0.0,98,0.00,,,0.00,meteohub,2013-08-29 06:34:00,
2013-08-29 02:39:00,68.2,67.6,30.00,ENE,64,0.0,0.0,98,0.00,,,0.00,meteohub,2013-08-29 06:39:00,
2013-08-29 02:44:00,68.2,67.6,30.00,ENE,64,0.0,0.0,98,0.00,,,0.00,meteohub,2013-08-29 06:44:00,
2013-08-29 02:50:00,68.2,67.6,30.00,ENE,64,0.0,0.0,98,0.00,,,0.00,meteohub,2013-08-29 06:50:00,
2013-08-29 02:55:00,68.4,67.8,30.00,ENE,64,0.0,0.0,98,0.00,,,0.00,meteohub,2013-08-29 06:55:00,
2013-08-29 03:00:00,68.4,67.8,30.00,ENE,64,0.0,0.0,98,0.00,,,0.00,meteohub,2013-08-29 07:00:00,
2013-08-29 03:06:00,68.4,67.8,30.00,ENE,64,0.0,0.0,98,0.00,,,0.00,meteohub,2013-08-29 07:06:00,
2013-08-29 03:11:00,68.4,67.8,30.01,ENE,64,0.0,0.0,98,0.00,,,0.00,meteohub,2013-08-29 07:11:00,
2013-08-29 03:17:00,68.2,67.6,30.01,ENE,64,0.0,0.0,98,0.00,,,0.00,meteohub,2013-08-29 07:17:00,
2013-08-29 03:22:00,68.0,67.5,30.00,ENE,64,0.0,0.0,98,0.00,,,0.00,meteohub,2013-08-29 07:22:00,
2013-08-29 03:27:00,67.8,67.3,30.00,ENE,64,0.0,0.0,98,0.00,,,0.00,meteohub,2013-08-29 07:27:00,
2013-08-29 03:32:00,67.6,67.1,30.01,ENE,64,0.0,0.0,98,0.00,,,0.00,meteohub,2013-08-29 07:32:00,
2013-08-29 03:37:00,67.6,67.1,30.00,ENE,64,0.0,0.0,98,0.00,,,0.00,meteohub,2013-08-29 07:37:00,
2013-08-29 03:42:00,67.6,67.1,30.01,ENE,64,0.0,0.0,98,0.00,,,0.00,meteohub,2013-08-29 07:42:00,
2013-08-29 03:47:00,67.6,67.1,30.01,ENE,64,0.0,0.0,98,0.00,,,0.01,meteohub,2013-08-29 07:47:00,
2013-08-29 03:52:00,67.8,67.3,30.01,ENE,64,0.0,1.0,98,0.01,,,0.01,meteohub,2013-08-29 07:52:00,
2013-08-29 03:57:00,68.2,67.6,30.01,ENE,64,0.0,1.0,98,0.01,,,0.01,meteohub,2013-08-29 07:57:00,
2013-08-29 04:02:00,68.4,67.8,30.01,ENE,64,0.0,1.0,98,0.01,,,0.01,meteohub,2013-08-29 08:02:00,
2013-08-29 04:07:00,68.7,68.4,30.01,ENE,65,0.0,1.0,99,0.01,,,0.01,meteohub,2013-08-29 08:07:00,
2013-08-29 04:12:00,68.9,68.4,30.01,NE,38,0.0,3.0,98,0.01,,,0.01,meteohub,2013-08-29 08:12:00,
2013-08-29 04:17:00,68.9,68.4,30.01,NE,38,2.0,3.0,98,0.01,,,0.01,meteohub,2013-08-29 08:17:00,
2013-08-29 04:22:00,69.1,68.5,30.01,NE,43,2.0,3.0,98,0.01,,,0.01,meteohub,2013-08-29 08:22:00,
2013-08-29 04:27:00,69.1,68.5,30.01,NE,51,0.0,3.0,98,0.01,,,0.01,meteohub,2013-08-29 08:27:00,
2013-08-29 04:32:00,69.1,68.5,30.02,NE,51,1.0,3.0,98,0.01,,,0.01,meteohub,2013-08-29 08:32:00,